sensor_id;sensor_type;location;lat;lon;timestamp;P1;durP1;ratioP1;P2;durP2;ratioP2
55013;SDS011;40916;51.632;5.552;2023-02-15T00:04:07;23.6;;;43.1;;
55013;SDS011;40916;51.632;5.552;2023-02-15T00:09:06;24.8;;;42.3;;
55013;SDS011;40916;51.632;5.552;2023-02-15T00:14:07;23.8;;;50.2;;
55013;SDS011;40916;51.632;5.552;2023-02-15T00:19:07;22.5;;;38.8;;
55013;SDS011;40916;51.632;5.552;2023-02-15T00:24:07;22;;;39;;
55013;SDS011;40916;51.632;5.552;2023-02-15T00:29:06;24.1;;;42.9;;
55013;SDS011;40916;51.632;5.552;2023-02-15T00:34:07;23;;;44.8;;
55013;SDS011;40916;51.632;5.552;2023-02-15T00:39:06;22.3;;;44;;
55013;SDS011;40916;51.632;5.552;2023-02-15T00:44:06;23.6;;;47;;
55013;SDS011;40916;51.632;5.552;2023-02-15T00:49:06;23;;;40.2;;
55013;SDS011;40916;51.632;5.552;2023-02-15T00:54:06;22;;;39.6;;
55013;SDS011;40916;51.632;5.552;2023-02-15T00:59:07;24.5;;;45.3;;
55013;SDS011;40916;51.632;5.552;2023-02-15T01:04:06;23.2;;;45.7;;
55013;SDS011;40916;51.632;5.552;2023-02-15T01:09:06;23;;;46.3;;
55013;SDS011;40916;51.632;5.552;2023-02-15T01:14:06;22.8;;;45.1;;
55013;SDS011;40916;51.632;5.552;2023-02-15T01:19:06;24.4;;;46;;
55013;SDS011;40916;51.632;5.552;2023-02-15T01:24:10;23.6;;;46.2;;
55013;SDS011;40916;51.632;5.552;2023-02-15T01:29:06;23.7;;;46.2;;
55013;SDS011;40916;51.632;5.552;2023-02-15T01:34:06;22.7;;;44.3;;
55013;SDS011;40916;51.632;5.552;2023-02-15T01:39:06;21.3;;;45.2;;
55013;SDS011;40916;51.632;5.552;2023-02-15T01:44:40;21.6;;;42.8;;
55013;SDS011;40916;51.632;5.552;2023-02-15T01:49:08;20.8;;;40.6;;
55013;SDS011;40916;51.632;5.552;2023-02-15T01:54:07;21.2;;;39.6;;
55013;SDS011;40916;51.632;5.552;2023-02-15T01:59:08;21.2;;;43.6;;
55013;SDS011;40916;51.632;5.552;2023-02-15T02:04:10;21.2;;;40.5;;
55013;SDS011;40916;51.632;5.552;2023-02-15T02:09:06;22.9;;;42.6;;
55013;SDS011;40916;51.632;5.552;2023-02-15T02:14:06;21.5;;;41.2;;
55013;SDS011;40916;51.632;5.552;2023-02-15T02:19:14;22.1;;;43.4;;
55013;SDS011;40916;51.632;5.552;2023-02-15T02:24:12;21;;;40.3;;
55013;SDS011;40916;51.632;5.552;2023-02-15T02:30:16;20.7;;;36.9;;
55013;SDS011;40916;51.632;5.552;2023-02-15T02:34:07;20.4;;;45.3;;
55013;SDS011;40916;51.632;5.552;2023-02-15T02:39:08;20;;;40.1;;
55013;SDS011;40916;51.632;5.552;2023-02-15T02:44:07;20.1;;;37.2;;
55013;SDS011;40916;51.632;5.552;2023-02-15T02:49:06;21.3;;;44.9;;
55013;SDS011;40916;51.632;5.552;2023-02-15T02:54:06;21.3;;;41;;
55013;SDS011;40916;51.632;5.552;2023-02-15T02:59:07;21.8;;;43.4;;
55013;SDS011;40916;51.632;5.552;2023-02-15T03:04:07;22.5;;;45.6;;
55013;SDS011;40916;51.632;5.552;2023-02-15T03:09:08;22.3;;;40.8;;
55013;SDS011;40916;51.632;5.552;2023-02-15T03:14:06;20.8;;;41.4;;
55013;SDS011;40916;51.632;5.552;2023-02-15T03:19:07;22.5;;;46.6;;
55013;SDS011;40916;51.632;5.552;2023-02-15T03:24:07;21.8;;;45.5;;
55013;SDS011;40916;51.632;5.552;2023-02-15T03:29:06;20.7;;;40.5;;
55013;SDS011;40916;51.632;5.552;2023-02-15T03:34:07;21.2;;;45.9;;
55013;SDS011;40916;51.632;5.552;2023-02-15T03:39:08;22.3;;;46.3;;
55013;SDS011;40916;51.632;5.552;2023-02-15T03:44:06;21.3;;;44.7;;
55013;SDS011;40916;51.632;5.552;2023-02-15T03:49:07;20.9;;;40.6;;
55013;SDS011;40916;51.632;5.552;2023-02-15T03:54:07;22.1;;;44.8;;
55013;SDS011;40916;51.632;5.552;2023-02-15T03:59:06;20.9;;;45.3;;
55013;SDS011;40916;51.632;5.552;2023-02-15T04:04:07;22;;;43.7;;
55013;SDS011;40916;51.632;5.552;2023-02-15T04:09:06;21.1;;;43.9;;
55013;SDS011;40916;51.632;5.552;2023-02-15T04:14:06;20.9;;;40.7;;
55013;SDS011;40916;51.632;5.552;2023-02-15T04:19:06;21.5;;;41.7;;
55013;SDS011;40916;51.632;5.552;2023-02-15T04:24:06;19.5;;;41.7;;
55013;SDS011;40916;51.632;5.552;2023-02-15T04:29:06;22.1;;;47.1;;
55013;SDS011;40916;51.632;5.552;2023-02-15T04:34:06;21;;;44;;
55013;SDS011;40916;51.632;5.552;2023-02-15T04:39:06;21.3;;;41.7;;
55013;SDS011;40916;51.632;5.552;2023-02-15T04:44:06;20.1;;;36;;
55013;SDS011;40916;51.632;5.552;2023-02-15T04:49:07;21.3;;;44;;
55013;SDS011;40916;51.632;5.552;2023-02-15T04:54:06;22;;;42.1;;
55013;SDS011;40916;51.632;5.552;2023-02-15T04:59:06;21.2;;;41.1;;
55013;SDS011;40916;51.632;5.552;2023-02-15T05:04:06;21.4;;;49.3;;
55013;SDS011;40916;51.632;5.552;2023-02-15T05:09:06;23.2;;;47.6;;
55013;SDS011;40916;51.632;5.552;2023-02-15T05:14:06;20.8;;;41.5;;
55013;SDS011;40916;51.632;5.552;2023-02-15T05:19:06;21;;;41.5;;
55013;SDS011;40916;51.632;5.552;2023-02-15T05:24:06;22.2;;;53.2;;
55013;SDS011;40916;51.632;5.552;2023-02-15T05:29:06;20.4;;;46.5;;
55013;SDS011;40916;51.632;5.552;2023-02-15T05:34:06;22.5;;;44;;
55013;SDS011;40916;51.632;5.552;2023-02-15T05:39:06;24.1;;;47.1;;
55013;SDS011;40916;51.632;5.552;2023-02-15T05:44:06;22.2;;;52.6;;
55013;SDS011;40916;51.632;5.552;2023-02-15T05:49:06;23.1;;;45.9;;
55013;SDS011;40916;51.632;5.552;2023-02-15T05:54:06;22.1;;;46.1;;
55013;SDS011;40916;51.632;5.552;2023-02-15T05:59:06;23.1;;;47.7;;
55013;SDS011;40916;51.632;5.552;2023-02-15T06:04:06;23.1;;;51.9;;
55013;SDS011;40916;51.632;5.552;2023-02-15T06:09:06;24.9;;;48.7;;
55013;SDS011;40916;51.632;5.552;2023-02-15T06:14:06;22.5;;;45.9;;
55013;SDS011;40916;51.632;5.552;2023-02-15T06:19:06;23.1;;;48.7;;
55013;SDS011;40916;51.632;5.552;2023-02-15T06:24:07;24.2;;;50.1;;
55013;SDS011;40916;51.632;5.552;2023-02-15T06:29:06;24.4;;;48.5;;
55013;SDS011;40916;51.632;5.552;2023-02-15T06:34:06;23.7;;;49.3;;
55013;SDS011;40916;51.632;5.552;2023-02-15T06:39:06;23.8;;;55.2;;
55013;SDS011;40916;51.632;5.552;2023-02-15T06:44:06;24;;;54.1;;
55013;SDS011;40916;51.632;5.552;2023-02-15T06:49:06;25.1;;;51;;
55013;SDS011;40916;51.632;5.552;2023-02-15T06:54:06;24.5;;;53.9;;
55013;SDS011;40916;51.632;5.552;2023-02-15T06:59:06;24.3;;;52.2;;
55013;SDS011;40916;51.632;5.552;2023-02-15T07:04:06;24.5;;;48.5;;
55013;SDS011;40916;51.632;5.552;2023-02-15T07:09:06;24.6;;;49.4;;
55013;SDS011;40916;51.632;5.552;2023-02-15T07:14:06;26.3;;;56.1;;
55013;SDS011;40916;51.632;5.552;2023-02-15T07:19:06;23.9;;;48.9;;
55013;SDS011;40916;51.632;5.552;2023-02-15T07:24:06;25.8;;;53.9;;
55013;SDS011;40916;51.632;5.552;2023-02-15T07:29:06;25.3;;;51.1;;
55013;SDS011;40916;51.632;5.552;2023-02-15T07:34:06;25.2;;;53.5;;
55013;SDS011;40916;51.632;5.552;2023-02-15T07:39:06;24.2;;;47.9;;
55013;SDS011;40916;51.632;5.552;2023-02-15T07:44:09;26.7;;;54.8;;
55013;SDS011;40916;51.632;5.552;2023-02-15T07:49:06;27.1;;;58.1;;
55013;SDS011;40916;51.632;5.552;2023-02-15T07:54:06;27.5;;;55.9;;
55013;SDS011;40916;51.632;5.552;2023-02-15T07:59:06;29.1;;;64.8;;
55013;SDS011;40916;51.632;5.552;2023-02-15T08:04:06;29.4;;;59.4;;
55013;SDS011;40916;51.632;5.552;2023-02-15T08:09:06;30.3;;;62.5;;
55013;SDS011;40916;51.632;5.552;2023-02-15T08:14:07;30.5;;;59.4;;
55013;SDS011;40916;51.632;5.552;2023-02-15T08:19:06;27.3;;;54.1;;
55013;SDS011;40916;51.632;5.552;2023-02-15T08:24:06;26.9;;;55.1;;
55013;SDS011;40916;51.632;5.552;2023-02-15T08:29:06;27.9;;;53.7;;
55013;SDS011;40916;51.632;5.552;2023-02-15T08:34:06;28.7;;;61.8;;
55013;SDS011;40916;51.632;5.552;2023-02-15T08:39:06;27.6;;;53.9;;
55013;SDS011;40916;51.632;5.552;2023-02-15T08:44:06;28;;;57.8;;
55013;SDS011;40916;51.632;5.552;2023-02-15T08:49:06;28.2;;;54.7;;
55013;SDS011;40916;51.632;5.552;2023-02-15T08:54:07;29.4;;;57.3;;
55013;SDS011;40916;51.632;5.552;2023-02-15T08:59:06;29;;;59.9;;
55013;SDS011;40916;51.632;5.552;2023-02-15T09:04:06;27.9;;;53.8;;
55013;SDS011;40916;51.632;5.552;2023-02-15T09:09:06;29;;;51.2;;
55013;SDS011;40916;51.632;5.552;2023-02-15T09:14:06;27.8;;;50.1;;
55013;SDS011;40916;51.632;5.552;2023-02-15T09:19:06;27.7;;;53.8;;
55013;SDS011;40916;51.632;5.552;2023-02-15T09:24:06;27.4;;;50.3;;
55013;SDS011;40916;51.632;5.552;2023-02-15T09:29:06;25.9;;;51.9;;
55013;SDS011;40916;51.632;5.552;2023-02-15T09:34:06;28.3;;;50.9;;
55013;SDS011;40916;51.632;5.552;2023-02-15T09:39:07;29.9;;;53.8;;
55013;SDS011;40916;51.632;5.552;2023-02-15T09:44:10;28.3;;;54.2;;
55013;SDS011;40916;51.632;5.552;2023-02-15T09:49:07;28.8;;;52.7;;
55013;SDS011;40916;51.632;5.552;2023-02-15T09:54:12;27.7;;;50;;
55013;SDS011;40916;51.632;5.552;2023-02-15T09:59:09;27.2;;;51.3;;
55013;SDS011;40916;51.632;5.552;2023-02-15T10:04:11;25;;;45.2;;
55013;SDS011;40916;51.632;5.552;2023-02-15T10:09:09;26.6;;;47.4;;
55013;SDS011;40916;51.632;5.552;2023-02-15T10:14:11;25.7;;;47.3;;
55013;SDS011;40916;51.632;5.552;2023-02-15T10:19:07;27;;;48.5;;
55013;SDS011;40916;51.632;5.552;2023-02-15T10:24:12;25;;;42.8;;
55013;SDS011;40916;51.632;5.552;2023-02-15T10:29:07;24.9;;;45.7;;
55013;SDS011;40916;51.632;5.552;2023-02-15T10:34:10;26.3;;;46.2;;
55013;SDS011;40916;51.632;5.552;2023-02-15T10:39:06;26.4;;;46.9;;
55013;SDS011;40916;51.632;5.552;2023-02-15T10:44:10;27;;;43.8;;
55013;SDS011;40916;51.632;5.552;2023-02-15T10:49:12;24.9;;;44;;
55013;SDS011;40916;51.632;5.552;2023-02-15T10:54:09;24.9;;;42.9;;
55013;SDS011;40916;51.632;5.552;2023-02-15T10:59:11;24.5;;;40.9;;
55013;SDS011;40916;51.632;5.552;2023-02-15T11:04:09;25.3;;;43.1;;
55013;SDS011;40916;51.632;5.552;2023-02-15T11:09:09;24.2;;;40.3;;
55013;SDS011;40916;51.632;5.552;2023-02-15T11:14:10;25.1;;;50;;
55013;SDS011;40916;51.632;5.552;2023-02-15T11:19:06;25.5;;;48;;
55013;SDS011;40916;51.632;5.552;2023-02-15T11:24:08;24.6;;;44.8;;
55013;SDS011;40916;51.632;5.552;2023-02-15T11:29:07;25.1;;;46.5;;
55013;SDS011;40916;51.632;5.552;2023-02-15T11:34:10;24.7;;;43.9;;
55013;SDS011;40916;51.632;5.552;2023-02-15T11:39:08;22.7;;;40.9;;
55013;SDS011;40916;51.632;5.552;2023-02-15T11:44:06;23.5;;;47.2;;
55013;SDS011;40916;51.632;5.552;2023-02-15T11:49:08;22.4;;;39.7;;
55013;SDS011;40916;51.632;5.552;2023-02-15T11:54:07;22.1;;;40.5;;
55013;SDS011;40916;51.632;5.552;2023-02-15T11:59:06;17.9;;;35.9;;
55013;SDS011;40916;51.632;5.552;2023-02-15T12:04:06;21.5;;;41.7;;
55013;SDS011;40916;51.632;5.552;2023-02-15T12:09:09;20;;;43.4;;
55013;SDS011;40916;51.632;5.552;2023-02-15T12:14:06;20;;;40.3;;
55013;SDS011;40916;51.632;5.552;2023-02-15T12:19:10;20.5;;;38.9;;
55013;SDS011;40916;51.632;5.552;2023-02-15T12:24:09;21.6;;;39;;
55013;SDS011;40916;51.632;5.552;2023-02-15T12:29:06;21.1;;;38.3;;
55013;SDS011;40916;51.632;5.552;2023-02-15T12:34:08;21.8;;;44.5;;
55013;SDS011;40916;51.632;5.552;2023-02-15T12:39:15;22.5;;;42.5;;
55013;SDS011;40916;51.632;5.552;2023-02-15T12:44:06;23.4;;;45.3;;
55013;SDS011;40916;51.632;5.552;2023-02-15T12:49:06;22.9;;;41.8;;
55013;SDS011;40916;51.632;5.552;2023-02-15T12:54:15;24;;;42.5;;
55013;SDS011;40916;51.632;5.552;2023-02-15T12:59:05;22.9;;;43.5;;
55013;SDS011;40916;51.632;5.552;2023-02-15T13:04:07;22.2;;;42.6;;
55013;SDS011;40916;51.632;5.552;2023-02-15T13:09:06;23.4;;;46.8;;
55013;SDS011;40916;51.632;5.552;2023-02-15T13:14:14;24.6;;;43.6;;
55013;SDS011;40916;51.632;5.552;2023-02-15T13:19:06;23.7;;;45.2;;
55013;SDS011;40916;51.632;5.552;2023-02-15T13:24:06;22.5;;;38.6;;
55013;SDS011;40916;51.632;5.552;2023-02-15T13:29:06;23.1;;;41.1;;
55013;SDS011;40916;51.632;5.552;2023-02-15T13:34:07;24.4;;;41.5;;
55013;SDS011;40916;51.632;5.552;2023-02-15T13:39:08;24;;;40.4;;
55013;SDS011;40916;51.632;5.552;2023-02-15T13:44:08;24;;;41.6;;
55013;SDS011;40916;51.632;5.552;2023-02-15T13:49:09;24.8;;;51.4;;
55013;SDS011;40916;51.632;5.552;2023-02-15T13:54:13;25.5;;;45.1;;
55013;SDS011;40916;51.632;5.552;2023-02-15T13:59:11;24;;;41.3;;
55013;SDS011;40916;51.632;5.552;2023-02-15T14:04:27;25;;;43.5;;
55013;SDS011;40916;51.632;5.552;2023-02-15T14:09:09;23.7;;;40;;
55013;SDS011;40916;51.632;5.552;2023-02-15T14:14:11;24.1;;;42.5;;
55013;SDS011;40916;51.632;5.552;2023-02-15T14:19:09;21.6;;;41.1;;
55013;SDS011;40916;51.632;5.552;2023-02-15T14:24:08;17.2;;;37.7;;
55013;SDS011;40916;51.632;5.552;2023-02-15T14:29:07;21.7;;;38.8;;
55013;SDS011;40916;51.632;5.552;2023-02-15T14:34:08;24.7;;;45.1;;
55013;SDS011;40916;51.632;5.552;2023-02-15T14:44:08;23.4;;;43.8;;
55013;SDS011;40916;51.632;5.552;2023-02-15T14:49:06;20.4;;;43.4;;
55013;SDS011;40916;51.632;5.552;2023-02-15T14:54:06;26;;;52.5;;
55013;SDS011;40916;51.632;5.552;2023-02-15T14:59:12;23.5;;;41;;
55013;SDS011;40916;51.632;5.552;2023-02-15T15:04:06;25;;;50;;
55013;SDS011;40916;51.632;5.552;2023-02-15T15:09:10;23;;;43.1;;
55013;SDS011;40916;51.632;5.552;2023-02-15T15:14:05;24.9;;;47.2;;
55013;SDS011;40916;51.632;5.552;2023-02-15T15:19:08;25.6;;;52.6;;
55013;SDS011;40916;51.632;5.552;2023-02-15T15:24:05;21.8;;;41.3;;
55013;SDS011;40916;51.632;5.552;2023-02-15T15:29:05;23.2;;;47.9;;
55013;SDS011;40916;51.632;5.552;2023-02-15T15:34:18;25.4;;;43.3;;
55013;SDS011;40916;51.632;5.552;2023-02-15T15:39:06;25.4;;;46.5;;
55013;SDS011;40916;51.632;5.552;2023-02-15T15:45:16;23.4;;;50.2;;
55013;SDS011;40916;51.632;5.552;2023-02-15T15:49:06;25.2;;;50;;
55013;SDS011;40916;51.632;5.552;2023-02-15T15:54:05;25.1;;;50.4;;
55013;SDS011;40916;51.632;5.552;2023-02-15T15:59:06;24.1;;;47.4;;
55013;SDS011;40916;51.632;5.552;2023-02-15T16:04:05;25.1;;;44.5;;
55013;SDS011;40916;51.632;5.552;2023-02-15T16:09:09;24.3;;;48.2;;
55013;SDS011;40916;51.632;5.552;2023-02-15T16:14:09;24.5;;;43.7;;
55013;SDS011;40916;51.632;5.552;2023-02-15T16:19:05;24.9;;;44.9;;
55013;SDS011;40916;51.632;5.552;2023-02-15T16:24:11;24.6;;;47.5;;
55013;SDS011;40916;51.632;5.552;2023-02-15T16:29:12;25.1;;;44.9;;
55013;SDS011;40916;51.632;5.552;2023-02-15T16:34:07;24.2;;;42.3;;
55013;SDS011;40916;51.632;5.552;2023-02-15T16:39:06;27.1;;;51.7;;
55013;SDS011;40916;51.632;5.552;2023-02-15T16:44:06;27.6;;;52.7;;
55013;SDS011;40916;51.632;5.552;2023-02-15T16:49:06;27.1;;;45.3;;
55013;SDS011;40916;51.632;5.552;2023-02-15T16:54:05;24.8;;;54;;
55013;SDS011;40916;51.632;5.552;2023-02-15T16:59:05;26;;;51.4;;
55013;SDS011;40916;51.632;5.552;2023-02-15T17:04:13;24.1;;;46;;
55013;SDS011;40916;51.632;5.552;2023-02-15T17:09:06;25.7;;;47.7;;
55013;SDS011;40916;51.632;5.552;2023-02-15T17:14:20;24.8;;;48.3;;
55013;SDS011;40916;51.632;5.552;2023-02-15T17:19:07;20.9;;;38.7;;
55013;SDS011;40916;51.632;5.552;2023-02-15T17:24:05;23.7;;;46.8;;
55013;SDS011;40916;51.632;5.552;2023-02-15T17:29:09;24.8;;;52.2;;
55013;SDS011;40916;51.632;5.552;2023-02-15T17:34:05;23.4;;;48.2;;
55013;SDS011;40916;51.632;5.552;2023-02-15T17:39:06;25;;;63;;
55013;SDS011;40916;51.632;5.552;2023-02-15T17:44:05;30.6;;;58.7;;
55013;SDS011;40916;51.632;5.552;2023-02-15T17:49:05;25.3;;;52;;
55013;SDS011;40916;51.632;5.552;2023-02-15T17:54:05;25.1;;;44.6;;
55013;SDS011;40916;51.632;5.552;2023-02-15T17:59:05;25.3;;;48.8;;
55013;SDS011;40916;51.632;5.552;2023-02-15T18:04:07;25.5;;;46.2;;
55013;SDS011;40916;51.632;5.552;2023-02-15T18:09:05;27.2;;;48.6;;
55013;SDS011;40916;51.632;5.552;2023-02-15T18:14:05;26.5;;;46;;
55013;SDS011;40916;51.632;5.552;2023-02-15T18:19:05;29.4;;;51.9;;
55013;SDS011;40916;51.632;5.552;2023-02-15T18:24:05;28.3;;;54.8;;
55013;SDS011;40916;51.632;5.552;2023-02-15T18:29:05;30.4;;;57.6;;
55013;SDS011;40916;51.632;5.552;2023-02-15T18:34:05;34.5;;;61.8;;
55013;SDS011;40916;51.632;5.552;2023-02-15T18:39:05;33.7;;;59.1;;
55013;SDS011;40916;51.632;5.552;2023-02-15T18:44:08;33.5;;;62.7;;
55013;SDS011;40916;51.632;5.552;2023-02-15T18:49:05;31.9;;;57.5;;
55013;SDS011;40916;51.632;5.552;2023-02-15T18:54:05;31.6;;;56.1;;
55013;SDS011;40916;51.632;5.552;2023-02-15T18:59:05;29.8;;;56.3;;
55013;SDS011;40916;51.632;5.552;2023-02-15T19:04:05;31.7;;;53.5;;
55013;SDS011;40916;51.632;5.552;2023-02-15T19:09:05;31.9;;;56.4;;
55013;SDS011;40916;51.632;5.552;2023-02-15T19:14:07;33.3;;;56;;
55013;SDS011;40916;51.632;5.552;2023-02-15T19:19:05;38.4;;;72.5;;
55013;SDS011;40916;51.632;5.552;2023-02-15T19:24:06;40.8;;;70.8;;
55013;SDS011;40916;51.632;5.552;2023-02-15T19:29:05;35.5;;;65.8;;
55013;SDS011;40916;51.632;5.552;2023-02-15T19:34:09;34.5;;;59;;
55013;SDS011;40916;51.632;5.552;2023-02-15T19:39:05;32;;;53.6;;
55013;SDS011;40916;51.632;5.552;2023-02-15T19:44:06;33.1;;;59.6;;
55013;SDS011;40916;51.632;5.552;2023-02-15T19:49:05;30.8;;;61.3;;
55013;SDS011;40916;51.632;5.552;2023-02-15T19:54:07;33.4;;;63;;
55013;SDS011;40916;51.632;5.552;2023-02-15T19:59:05;33.1;;;57.6;;
55013;SDS011;40916;51.632;5.552;2023-02-15T20:04:05;32.3;;;52.8;;
55013;SDS011;40916;51.632;5.552;2023-02-15T20:09:05;33.8;;;64.5;;
55013;SDS011;40916;51.632;5.552;2023-02-15T20:14:08;32.2;;;61.1;;
55013;SDS011;40916;51.632;5.552;2023-02-15T20:19:05;39.8;;;72.7;;
55013;SDS011;40916;51.632;5.552;2023-02-15T20:24:05;34.9;;;66.6;;
55013;SDS011;40916;51.632;5.552;2023-02-15T20:29:05;34.7;;;65.9;;
55013;SDS011;40916;51.632;5.552;2023-02-15T20:34:05;32.4;;;60;;
55013;SDS011;40916;51.632;5.552;2023-02-15T20:39:10;32.4;;;61.4;;
55013;SDS011;40916;51.632;5.552;2023-02-15T20:44:11;35.4;;;70.1;;
55013;SDS011;40916;51.632;5.552;2023-02-15T20:49:05;33.5;;;63;;
55013;SDS011;40916;51.632;5.552;2023-02-15T20:54:08;36.2;;;70.3;;
55013;SDS011;40916;51.632;5.552;2023-02-15T20:59:08;35.4;;;64.7;;
55013;SDS011;40916;51.632;5.552;2023-02-15T21:04:05;36.6;;;70.6;;
55013;SDS011;40916;51.632;5.552;2023-02-15T21:09:05;34.6;;;66.1;;
55013;SDS011;40916;51.632;5.552;2023-02-15T21:14:05;34.4;;;61.4;;
55013;SDS011;40916;51.632;5.552;2023-02-15T21:19:08;34.8;;;69.6;;
55013;SDS011;40916;51.632;5.552;2023-02-15T21:24:05;35;;;65.7;;
55013;SDS011;40916;51.632;5.552;2023-02-15T21:29:05;32;;;61.4;;
55013;SDS011;40916;51.632;5.552;2023-02-15T21:34:05;38;;;73.4;;
55013;SDS011;40916;51.632;5.552;2023-02-15T21:39:05;36;;;69.7;;
55013;SDS011;40916;51.632;5.552;2023-02-15T21:44:10;35.4;;;63.9;;
55013;SDS011;40916;51.632;5.552;2023-02-15T21:49:05;33;;;61.5;;
55013;SDS011;40916;51.632;5.552;2023-02-15T21:54:05;31.5;;;58.4;;
55013;SDS011;40916;51.632;5.552;2023-02-15T21:59:07;31.9;;;59.1;;
55013;SDS011;40916;51.632;5.552;2023-02-15T22:04:09;32;;;57.9;;
55013;SDS011;40916;51.632;5.552;2023-02-15T22:09:08;29.7;;;55.5;;
55013;SDS011;40916;51.632;5.552;2023-02-15T22:14:05;37.6;;;68.4;;
55013;SDS011;40916;51.632;5.552;2023-02-15T22:19:07;34.5;;;68.9;;
55013;SDS011;40916;51.632;5.552;2023-02-15T22:24:05;33.6;;;62.8;;
55013;SDS011;40916;51.632;5.552;2023-02-15T22:29:05;36.4;;;63.2;;
55013;SDS011;40916;51.632;5.552;2023-02-15T22:34:05;33.8;;;62.4;;
55013;SDS011;40916;51.632;5.552;2023-02-15T22:39:05;35.5;;;61.7;;
55013;SDS011;40916;51.632;5.552;2023-02-15T22:44:05;35.3;;;64.4;;
55013;SDS011;40916;51.632;5.552;2023-02-15T22:49:05;32.7;;;57.8;;
55013;SDS011;40916;51.632;5.552;2023-02-15T22:54:05;33.6;;;60.8;;
55013;SDS011;40916;51.632;5.552;2023-02-15T22:59:05;30.2;;;58.3;;
55013;SDS011;40916;51.632;5.552;2023-02-15T23:04:05;32.8;;;61.6;;
55013;SDS011;40916;51.632;5.552;2023-02-15T23:09:05;32.3;;;59.1;;
55013;SDS011;40916;51.632;5.552;2023-02-15T23:14:05;33;;;65.7;;
55013;SDS011;40916;51.632;5.552;2023-02-15T23:19:05;32.6;;;61.1;;
55013;SDS011;40916;51.632;5.552;2023-02-15T23:24:09;30.5;;;58.3;;
55013;SDS011;40916;51.632;5.552;2023-02-15T23:29:07;31.1;;;56.8;;
55013;SDS011;40916;51.632;5.552;2023-02-15T23:34:09;31.9;;;64.5;;
55013;SDS011;40916;51.632;5.552;2023-02-15T23:39:10;33.3;;;59.8;;
55013;SDS011;40916;51.632;5.552;2023-02-15T23:44:05;28.4;;;53.5;;
55013;SDS011;40916;51.632;5.552;2023-02-15T23:49:05;28.7;;;58.6;;
55013;SDS011;40916;51.632;5.552;2023-02-15T23:54:04;32.4;;;56.2;;
55013;SDS011;40916;51.632;5.552;2023-02-15T23:59:04;32.4;;;57.9;;
